sensor_id;sensor_type;location;lat;lon;timestamp;P1;durP1;ratioP1;P2;durP2;ratioP2
18887;SDS011;9576;47.792;9.628;2023-05-07T00:02:28;9.45;;;3.83;;
18887;SDS011;9576;47.792;9.628;2023-05-07T00:05:30;5.10;;;4.40;;
18887;SDS011;9576;47.792;9.628;2023-05-07T00:08:32;12.43;;;4.88;;
18887;SDS011;9576;47.792;9.628;2023-05-07T00:11:34;12.32;;;4.70;;
18887;SDS011;9576;47.792;9.628;2023-05-07T00:14:36;9.63;;;5.28;;
18887;SDS011;9576;47.792;9.628;2023-05-07T00:17:39;6.38;;;4.70;;
18887;SDS011;9576;47.792;9.628;2023-05-07T00:20:41;11.00;;;4.45;;
18887;SDS011;9576;47.792;9.628;2023-05-07T00:23:43;7.80;;;5.78;;
18887;SDS011;9576;47.792;9.628;2023-05-07T00:26:45;12.10;;;4.57;;
18887;SDS011;9576;47.792;9.628;2023-05-07T00:29:47;6.53;;;4.45;;
18887;SDS011;9576;47.792;9.628;2023-05-07T00:32:50;9.90;;;5.28;;
18887;SDS011;9576;47.792;9.628;2023-05-07T00:35:52;10.27;;;5.38;;
18887;SDS011;9576;47.792;9.628;2023-05-07T00:38:56;7.78;;;4.18;;
18887;SDS011;9576;47.792;9.628;2023-05-07T00:42:00;6.25;;;4.78;;
18887;SDS011;9576;47.792;9.628;2023-05-07T00:45:02;10.23;;;4.93;;
18887;SDS011;9576;47.792;9.628;2023-05-07T00:48:06;6.80;;;4.15;;
18887;SDS011;9576;47.792;9.628;2023-05-07T00:51:08;13.27;;;4.47;;
18887;SDS011;9576;47.792;9.628;2023-05-07T00:54:11;13.30;;;5.30;;
18887;SDS011;9576;47.792;9.628;2023-05-07T00:57:14;7.57;;;4.80;;
18887;SDS011;9576;47.792;9.628;2023-05-07T01:00:16;9.45;;;5.15;;
18887;SDS011;9576;47.792;9.628;2023-05-07T01:03:21;11.07;;;4.75;;
18887;SDS011;9576;47.792;9.628;2023-05-07T01:06:24;9.02;;;4.32;;
18887;SDS011;9576;47.792;9.628;2023-05-07T01:09:28;9.65;;;4.53;;
18887;SDS011;9576;47.792;9.628;2023-05-07T01:12:30;13.82;;;4.50;;
18887;SDS011;9576;47.792;9.628;2023-05-07T01:15:33;8.98;;;5.10;;
18887;SDS011;9576;47.792;9.628;2023-05-07T01:18:37;9.35;;;4.35;;
18887;SDS011;9576;47.792;9.628;2023-05-07T01:21:39;9.05;;;4.38;;
18887;SDS011;9576;47.792;9.628;2023-05-07T01:24:48;6.72;;;4.47;;
18887;SDS011;9576;47.792;9.628;2023-05-07T01:27:51;8.32;;;4.63;;
18887;SDS011;9576;47.792;9.628;2023-05-07T01:30:54;7.55;;;4.78;;
18887;SDS011;9576;47.792;9.628;2023-05-07T01:34:01;7.07;;;4.55;;
18887;SDS011;9576;47.792;9.628;2023-05-07T01:40:09;11.60;;;4.05;;
18887;SDS011;9576;47.792;9.628;2023-05-07T01:43:12;6.83;;;3.80;;
18887;SDS011;9576;47.792;9.628;2023-05-07T01:46:13;6.45;;;4.28;;
18887;SDS011;9576;47.792;9.628;2023-05-07T01:49:17;11.65;;;3.80;;
18887;SDS011;9576;47.792;9.628;2023-05-07T01:52:19;9.02;;;3.85;;
18887;SDS011;9576;47.792;9.628;2023-05-07T01:55:23;10.15;;;4.15;;
18887;SDS011;9576;47.792;9.628;2023-05-07T01:58:25;5.50;;;3.60;;
18887;SDS011;9576;47.792;9.628;2023-05-07T02:01:27;4.18;;;2.95;;
18887;SDS011;9576;47.792;9.628;2023-05-07T02:04:28;6.00;;;3.60;;
18887;SDS011;9576;47.792;9.628;2023-05-07T02:07:30;6.95;;;4.20;;
18887;SDS011;9576;47.792;9.628;2023-05-07T02:10:34;7.93;;;3.30;;
18887;SDS011;9576;47.792;9.628;2023-05-07T02:13:36;7.05;;;3.88;;
18887;SDS011;9576;47.792;9.628;2023-05-07T02:16:38;6.38;;;3.65;;
18887;SDS011;9576;47.792;9.628;2023-05-07T02:19:40;4.13;;;3.40;;
18887;SDS011;9576;47.792;9.628;2023-05-07T02:22:42;6.90;;;4.03;;
18887;SDS011;9576;47.792;9.628;2023-05-07T02:25:45;14.73;;;4.70;;
18887;SDS011;9576;47.792;9.628;2023-05-07T02:28:47;5.63;;;4.15;;
18887;SDS011;9576;47.792;9.628;2023-05-07T02:31:49;8.85;;;4.05;;
18887;SDS011;9576;47.792;9.628;2023-05-07T02:34:52;7.00;;;4.85;;
18887;SDS011;9576;47.792;9.628;2023-05-07T02:37:54;5.40;;;4.22;;
18887;SDS011;9576;47.792;9.628;2023-05-07T02:40:58;12.50;;;4.57;;
18887;SDS011;9576;47.792;9.628;2023-05-07T02:44:00;8.48;;;4.50;;
18887;SDS011;9576;47.792;9.628;2023-05-07T02:47:01;12.43;;;4.45;;
18887;SDS011;9576;47.792;9.628;2023-05-07T02:50:08;7.93;;;3.97;;
18887;SDS011;9576;47.792;9.628;2023-05-07T02:56:16;7.25;;;3.80;;
18887;SDS011;9576;47.792;9.628;2023-05-07T02:59:18;7.25;;;4.15;;
18887;SDS011;9576;47.792;9.628;2023-05-07T03:02:19;6.78;;;3.25;;
18887;SDS011;9576;47.792;9.628;2023-05-07T03:05:23;6.57;;;3.25;;
18887;SDS011;9576;47.792;9.628;2023-05-07T03:08:25;5.45;;;2.95;;
18887;SDS011;9576;47.792;9.628;2023-05-07T03:11:28;11.05;;;3.33;;
18887;SDS011;9576;47.792;9.628;2023-05-07T03:14:30;4.95;;;3.42;;
18887;SDS011;9576;47.792;9.628;2023-05-07T03:17:32;4.35;;;3.15;;
18887;SDS011;9576;47.792;9.628;2023-05-07T03:20:34;4.00;;;2.70;;
18887;SDS011;9576;47.792;9.628;2023-05-07T03:23:36;14.82;;;3.53;;
18887;SDS011;9576;47.792;9.628;2023-05-07T03:26:40;4.90;;;3.00;;
18887;SDS011;9576;47.792;9.628;2023-05-07T03:29:41;5.55;;;2.90;;
18887;SDS011;9576;47.792;9.628;2023-05-07T03:32:43;3.40;;;2.65;;
18887;SDS011;9576;47.792;9.628;2023-05-07T03:35:45;4.85;;;2.72;;
18887;SDS011;9576;47.792;9.628;2023-05-07T03:38:47;5.13;;;3.40;;
18887;SDS011;9576;47.792;9.628;2023-05-07T03:41:51;9.68;;;2.88;;
18887;SDS011;9576;47.792;9.628;2023-05-07T03:44:53;6.10;;;3.03;;
18887;SDS011;9576;47.792;9.628;2023-05-07T03:47:55;6.25;;;2.42;;
18887;SDS011;9576;47.792;9.628;2023-05-07T03:51:00;6.30;;;3.40;;
18887;SDS011;9576;47.792;9.628;2023-05-07T03:54:02;6.07;;;2.55;;
18887;SDS011;9576;47.792;9.628;2023-05-07T03:57:06;8.90;;;3.08;;
18887;SDS011;9576;47.792;9.628;2023-05-07T04:00:08;4.72;;;3.25;;
18887;SDS011;9576;47.792;9.628;2023-05-07T04:03:11;8.70;;;3.45;;
18887;SDS011;9576;47.792;9.628;2023-05-07T04:06:13;9.18;;;3.33;;
18887;SDS011;9576;47.792;9.628;2023-05-07T04:09:16;5.03;;;3.20;;
18887;SDS011;9576;47.792;9.628;2023-05-07T04:12:20;6.78;;;3.30;;
18887;SDS011;9576;47.792;9.628;2023-05-07T04:15:21;5.93;;;3.83;;
18887;SDS011;9576;47.792;9.628;2023-05-07T04:18:24;8.02;;;4.18;;
18887;SDS011;9576;47.792;9.628;2023-05-07T04:21:26;19.98;;;4.10;;
18887;SDS011;9576;47.792;9.628;2023-05-07T04:24:30;5.20;;;3.15;;
18887;SDS011;9576;47.792;9.628;2023-05-07T04:27:34;10.95;;;3.45;;
18887;SDS011;9576;47.792;9.628;2023-05-07T04:30:37;13.07;;;4.37;;
18887;SDS011;9576;47.792;9.628;2023-05-07T04:33:39;14.45;;;4.65;;
18887;SDS011;9576;47.792;9.628;2023-05-07T04:36:42;6.13;;;4.53;;
18887;SDS011;9576;47.792;9.628;2023-05-07T04:39:44;10.95;;;4.18;;
18887;SDS011;9576;47.792;9.628;2023-05-07T04:42:48;19.20;;;5.05;;
18887;SDS011;9576;47.792;9.628;2023-05-07T04:45:50;8.23;;;4.60;;
18887;SDS011;9576;47.792;9.628;2023-05-07T04:48:55;7.32;;;5.18;;
18887;SDS011;9576;47.792;9.628;2023-05-07T04:51:57;15.48;;;5.13;;
18887;SDS011;9576;47.792;9.628;2023-05-07T04:54:59;16.60;;;5.20;;
18887;SDS011;9576;47.792;9.628;2023-05-07T04:58:03;10.55;;;5.20;;
18887;SDS011;9576;47.792;9.628;2023-05-07T05:01:12;7.30;;;4.80;;
18887;SDS011;9576;47.792;9.628;2023-05-07T05:04:14;10.98;;;5.32;;
18887;SDS011;9576;47.792;9.628;2023-05-07T05:07:16;16.27;;;5.75;;
18887;SDS011;9576;47.792;9.628;2023-05-07T05:10:18;29.38;;;6.05;;
18887;SDS011;9576;47.792;9.628;2023-05-07T05:13:21;8.23;;;5.07;;
18887;SDS011;9576;47.792;9.628;2023-05-07T05:16:23;17.20;;;5.50;;
18887;SDS011;9576;47.792;9.628;2023-05-07T05:19:25;15.57;;;6.20;;
18887;SDS011;9576;47.792;9.628;2023-05-07T05:22:27;14.57;;;6.53;;
18887;SDS011;9576;47.792;9.628;2023-05-07T05:25:31;11.07;;;7.15;;
18887;SDS011;9576;47.792;9.628;2023-05-07T05:28:34;11.40;;;6.50;;
18887;SDS011;9576;47.792;9.628;2023-05-07T05:31:36;8.13;;;5.03;;
18887;SDS011;9576;47.792;9.628;2023-05-07T05:34:38;11.68;;;5.88;;
18887;SDS011;9576;47.792;9.628;2023-05-07T05:37:40;11.45;;;5.38;;
18887;SDS011;9576;47.792;9.628;2023-05-07T05:40:42;8.27;;;4.93;;
18887;SDS011;9576;47.792;9.628;2023-05-07T05:43:45;6.80;;;4.93;;
18887;SDS011;9576;47.792;9.628;2023-05-07T05:46:47;13.75;;;5.68;;
18887;SDS011;9576;47.792;9.628;2023-05-07T05:49:49;9.93;;;5.45;;
18887;SDS011;9576;47.792;9.628;2023-05-07T05:52:51;7.53;;;4.80;;
18887;SDS011;9576;47.792;9.628;2023-05-07T05:55:53;7.00;;;4.82;;
18887;SDS011;9576;47.792;9.628;2023-05-07T05:59:05;7.78;;;5.03;;
18887;SDS011;9576;47.792;9.628;2023-05-07T06:02:07;10.50;;;6.55;;
18887;SDS011;9576;47.792;9.628;2023-05-07T06:05:09;10.50;;;5.80;;
18887;SDS011;9576;47.792;9.628;2023-05-07T06:08:10;10.52;;;6.82;;
18887;SDS011;9576;47.792;9.628;2023-05-07T06:14:18;11.15;;;5.65;;
18887;SDS011;9576;47.792;9.628;2023-05-07T06:17:20;7.50;;;5.22;;
18887;SDS011;9576;47.792;9.628;2023-05-07T06:20:22;9.73;;;5.10;;
18887;SDS011;9576;47.792;9.628;2023-05-07T06:23:24;6.28;;;3.95;;
18887;SDS011;9576;47.792;9.628;2023-05-07T06:26:26;5.97;;;4.20;;
18887;SDS011;9576;47.792;9.628;2023-05-07T06:29:29;7.45;;;4.47;;
18887;SDS011;9576;47.792;9.628;2023-05-07T06:32:33;5.43;;;2.88;;
18887;SDS011;9576;47.792;9.628;2023-05-07T06:35:35;6.20;;;3.88;;
18887;SDS011;9576;47.792;9.628;2023-05-07T06:38:37;6.63;;;3.38;;
18887;SDS011;9576;47.792;9.628;2023-05-07T06:41:39;4.45;;;3.65;;
18887;SDS011;9576;47.792;9.628;2023-05-07T06:44:42;8.18;;;4.30;;
18887;SDS011;9576;47.792;9.628;2023-05-07T06:47:44;8.38;;;3.83;;
18887;SDS011;9576;47.792;9.628;2023-05-07T06:50:46;6.93;;;4.10;;
18887;SDS011;9576;47.792;9.628;2023-05-07T06:53:48;10.63;;;3.75;;
18887;SDS011;9576;47.792;9.628;2023-05-07T06:59:56;4.40;;;2.90;;
18887;SDS011;9576;47.792;9.628;2023-05-07T07:02:58;7.00;;;3.20;;
18887;SDS011;9576;47.792;9.628;2023-05-07T07:06:00;12.00;;;3.35;;
18887;SDS011;9576;47.792;9.628;2023-05-07T07:09:11;7.10;;;3.22;;
18887;SDS011;9576;47.792;9.628;2023-05-07T07:12:13;4.10;;;2.63;;
18887;SDS011;9576;47.792;9.628;2023-05-07T07:15:17;3.72;;;2.80;;
18887;SDS011;9576;47.792;9.628;2023-05-07T07:18:20;3.72;;;2.60;;
18887;SDS011;9576;47.792;9.628;2023-05-07T07:21:22;7.82;;;3.15;;
18887;SDS011;9576;47.792;9.628;2023-05-07T07:24:24;3.33;;;2.28;;
18887;SDS011;9576;47.792;9.628;2023-05-07T07:27:26;6.68;;;2.95;;
18887;SDS011;9576;47.792;9.628;2023-05-07T07:30:37;3.38;;;2.30;;
18887;SDS011;9576;47.792;9.628;2023-05-07T07:33:39;2.90;;;2.22;;
18887;SDS011;9576;47.792;9.628;2023-05-07T07:36:41;3.42;;;2.65;;
18887;SDS011;9576;47.792;9.628;2023-05-07T07:39:43;4.38;;;2.85;;
18887;SDS011;9576;47.792;9.628;2023-05-07T07:42:45;5.82;;;2.55;;
18887;SDS011;9576;47.792;9.628;2023-05-07T07:45:51;9.25;;;2.67;;
18887;SDS011;9576;47.792;9.628;2023-05-07T07:48:53;4.70;;;2.50;;
18887;SDS011;9576;47.792;9.628;2023-05-07T07:51:55;8.00;;;2.70;;
18887;SDS011;9576;47.792;9.628;2023-05-07T07:55:02;3.73;;;2.60;;
18887;SDS011;9576;47.792;9.628;2023-05-07T07:58:05;7.20;;;2.53;;
18887;SDS011;9576;47.792;9.628;2023-05-07T08:01:08;6.15;;;2.55;;
18887;SDS011;9576;47.792;9.628;2023-05-07T08:04:12;4.05;;;2.30;;
18887;SDS011;9576;47.792;9.628;2023-05-07T08:07:17;3.70;;;2.40;;
18887;SDS011;9576;47.792;9.628;2023-05-07T08:10:21;6.22;;;2.92;;
18887;SDS011;9576;47.792;9.628;2023-05-07T08:13:23;7.18;;;3.10;;
18887;SDS011;9576;47.792;9.628;2023-05-07T08:16:26;3.40;;;2.38;;
18887;SDS011;9576;47.792;9.628;2023-05-07T08:19:28;12.48;;;2.90;;
18887;SDS011;9576;47.792;9.628;2023-05-07T08:22:35;3.85;;;2.55;;
18887;SDS011;9576;47.792;9.628;2023-05-07T08:25:37;3.80;;;2.45;;
18887;SDS011;9576;47.792;9.628;2023-05-07T08:28:39;4.25;;;3.38;;
18887;SDS011;9576;47.792;9.628;2023-05-07T08:31:43;3.90;;;2.83;;
18887;SDS011;9576;47.792;9.628;2023-05-07T08:34:46;5.57;;;2.97;;
18887;SDS011;9576;47.792;9.628;2023-05-07T08:37:49;7.93;;;3.53;;
18887;SDS011;9576;47.792;9.628;2023-05-07T08:40:51;6.90;;;2.97;;
18887;SDS011;9576;47.792;9.628;2023-05-07T08:43:53;5.53;;;2.83;;
18887;SDS011;9576;47.792;9.628;2023-05-07T08:47:06;4.97;;;2.92;;
18887;SDS011;9576;47.792;9.628;2023-05-07T08:50:09;10.95;;;3.22;;
18887;SDS011;9576;47.792;9.628;2023-05-07T08:53:11;3.55;;;2.75;;
18887;SDS011;9576;47.792;9.628;2023-05-07T08:56:14;6.55;;;3.13;;
18887;SDS011;9576;47.792;9.628;2023-05-07T08:59:18;5.72;;;3.30;;
18887;SDS011;9576;47.792;9.628;2023-05-07T09:02:22;5.22;;;3.10;;
18887;SDS011;9576;47.792;9.628;2023-05-07T09:05:24;5.97;;;3.45;;
18887;SDS011;9576;47.792;9.628;2023-05-07T09:08:26;3.58;;;2.40;;
18887;SDS011;9576;47.792;9.628;2023-05-07T09:11:30;6.30;;;3.03;;
18887;SDS011;9576;47.792;9.628;2023-05-07T09:14:32;9.85;;;3.08;;
18887;SDS011;9576;47.792;9.628;2023-05-07T09:17:35;9.20;;;3.50;;
18887;SDS011;9576;47.792;9.628;2023-05-07T09:20:38;4.35;;;2.80;;
18887;SDS011;9576;47.792;9.628;2023-05-07T09:23:45;7.85;;;2.78;;
18887;SDS011;9576;47.792;9.628;2023-05-07T09:26:49;5.57;;;3.25;;
18887;SDS011;9576;47.792;9.628;2023-05-07T09:29:50;4.47;;;2.17;;
18887;SDS011;9576;47.792;9.628;2023-05-07T09:32:58;4.85;;;3.05;;
18887;SDS011;9576;47.792;9.628;2023-05-07T09:36:04;11.73;;;2.70;;
18887;SDS011;9576;47.792;9.628;2023-05-07T09:39:07;5.15;;;2.65;;
18887;SDS011;9576;47.792;9.628;2023-05-07T09:42:09;3.95;;;2.67;;
18887;SDS011;9576;47.792;9.628;2023-05-07T09:45:11;12.15;;;3.03;;
18887;SDS011;9576;47.792;9.628;2023-05-07T09:48:15;4.90;;;2.53;;
18887;SDS011;9576;47.792;9.628;2023-05-07T09:51:21;2.83;;;2.53;;
18887;SDS011;9576;47.792;9.628;2023-05-07T09:54:27;10.43;;;3.13;;
18887;SDS011;9576;47.792;9.628;2023-05-07T09:57:29;15.45;;;3.47;;
18887;SDS011;9576;47.792;9.628;2023-05-07T10:00:33;4.35;;;2.95;;
18887;SDS011;9576;47.792;9.628;2023-05-07T10:03:37;4.28;;;2.95;;
18887;SDS011;9576;47.792;9.628;2023-05-07T10:06:41;5.18;;;2.90;;
18887;SDS011;9576;47.792;9.628;2023-05-07T10:09:44;4.93;;;3.45;;
18887;SDS011;9576;47.792;9.628;2023-05-07T10:12:47;8.02;;;3.22;;
18887;SDS011;9576;47.792;9.628;2023-05-07T10:15:49;6.45;;;2.65;;
18887;SDS011;9576;47.792;9.628;2023-05-07T10:18:53;4.80;;;2.85;;
18887;SDS011;9576;47.792;9.628;2023-05-07T10:21:59;4.10;;;2.45;;
18887;SDS011;9576;47.792;9.628;2023-05-07T10:25:06;4.38;;;2.38;;
18887;SDS011;9576;47.792;9.628;2023-05-07T10:28:17;5.43;;;2.70;;
18887;SDS011;9576;47.792;9.628;2023-05-07T10:31:28;4.72;;;2.45;;
18887;SDS011;9576;47.792;9.628;2023-05-07T10:34:48;5.57;;;2.17;;
18887;SDS011;9576;47.792;9.628;2023-05-07T10:37:54;3.90;;;1.80;;
18887;SDS011;9576;47.792;9.628;2023-05-07T10:40:56;4.05;;;1.70;;
18887;SDS011;9576;47.792;9.628;2023-05-07T10:43:58;4.40;;;2.08;;
18887;SDS011;9576;47.792;9.628;2023-05-07T10:47:06;2.70;;;1.80;;
18887;SDS011;9576;47.792;9.628;2023-05-07T10:50:22;2.92;;;2.08;;
18887;SDS011;9576;47.792;9.628;2023-05-07T10:53:25;5.13;;;1.77;;
18887;SDS011;9576;47.792;9.628;2023-05-07T10:56:28;3.22;;;1.77;;
18887;SDS011;9576;47.792;9.628;2023-05-07T10:59:31;3.92;;;2.00;;
18887;SDS011;9576;47.792;9.628;2023-05-07T11:06:12;2.22;;;1.50;;
18887;SDS011;9576;47.792;9.628;2023-05-07T11:09:15;4.60;;;1.60;;
18887;SDS011;9576;47.792;9.628;2023-05-07T11:12:18;4.05;;;1.60;;
18887;SDS011;9576;47.792;9.628;2023-05-07T11:15:52;3.47;;;1.90;;
18887;SDS011;9576;47.792;9.628;2023-05-07T11:18:54;12.38;;;1.90;;
18887;SDS011;9576;47.792;9.628;2023-05-07T11:22:02;1.83;;;1.40;;
18887;SDS011;9576;47.792;9.628;2023-05-07T11:25:05;2.30;;;1.35;;
18887;SDS011;9576;47.792;9.628;2023-05-07T11:28:07;2.15;;;1.58;;
18887;SDS011;9576;47.792;9.628;2023-05-07T11:31:11;7.05;;;1.90;;
18887;SDS011;9576;47.792;9.628;2023-05-07T11:34:13;1.88;;;1.30;;
18887;SDS011;9576;47.792;9.628;2023-05-07T11:37:18;2.45;;;1.27;;
18887;SDS011;9576;47.792;9.628;2023-05-07T11:40:20;8.43;;;2.05;;
18887;SDS011;9576;47.792;9.628;2023-05-07T11:43:22;7.78;;;1.52;;
18887;SDS011;9576;47.792;9.628;2023-05-07T11:46:28;2.08;;;1.55;;
18887;SDS011;9576;47.792;9.628;2023-05-07T11:49:30;3.70;;;2.30;;
18887;SDS011;9576;47.792;9.628;2023-05-07T11:52:33;4.85;;;1.48;;
18887;SDS011;9576;47.792;9.628;2023-05-07T11:55:35;6.05;;;1.40;;
18887;SDS011;9576;47.792;9.628;2023-05-07T11:58:44;3.95;;;1.90;;
18887;SDS011;9576;47.792;9.628;2023-05-07T12:01:48;1.88;;;1.20;;
18887;SDS011;9576;47.792;9.628;2023-05-07T12:04:50;2.53;;;1.52;;
18887;SDS011;9576;47.792;9.628;2023-05-07T12:07:56;2.88;;;1.25;;
18887;SDS011;9576;47.792;9.628;2023-05-07T12:10:58;2.40;;;1.42;;
18887;SDS011;9576;47.792;9.628;2023-05-07T12:14:00;5.43;;;1.63;;
18887;SDS011;9576;47.792;9.628;2023-05-07T12:17:03;6.03;;;1.70;;
18887;SDS011;9576;47.792;9.628;2023-05-07T12:20:07;2.88;;;1.52;;
18887;SDS011;9576;47.792;9.628;2023-05-07T12:23:12;2.23;;;1.17;;
18887;SDS011;9576;47.792;9.628;2023-05-07T12:29:17;7.57;;;1.50;;
18887;SDS011;9576;47.792;9.628;2023-05-07T12:32:22;1.95;;;1.23;;
18887;SDS011;9576;47.792;9.628;2023-05-07T12:35:27;2.78;;;1.23;;
18887;SDS011;9576;47.792;9.628;2023-05-07T12:38:33;3.20;;;1.77;;
18887;SDS011;9576;47.792;9.628;2023-05-07T12:41:43;3.92;;;1.80;;
18887;SDS011;9576;47.792;9.628;2023-05-07T12:44:54;1.50;;;1.40;;
18887;SDS011;9576;47.792;9.628;2023-05-07T12:47:56;2.50;;;1.70;;
18887;SDS011;9576;47.792;9.628;2023-05-07T12:51:03;2.60;;;1.45;;
18887;SDS011;9576;47.792;9.628;2023-05-07T12:54:09;7.05;;;1.50;;
18887;SDS011;9576;47.792;9.628;2023-05-07T12:57:10;9.00;;;1.35;;
18887;SDS011;9576;47.792;9.628;2023-05-07T13:00:13;11.77;;;1.65;;
18887;SDS011;9576;47.792;9.628;2023-05-07T13:03:22;5.72;;;1.60;;
18887;SDS011;9576;47.792;9.628;2023-05-07T13:06:25;2.92;;;1.45;;
18887;SDS011;9576;47.792;9.628;2023-05-07T13:09:28;4.18;;;1.35;;
18887;SDS011;9576;47.792;9.628;2023-05-07T13:12:32;1.52;;;1.15;;
18887;SDS011;9576;47.792;9.628;2023-05-07T13:15:34;5.15;;;1.60;;
18887;SDS011;9576;47.792;9.628;2023-05-07T13:18:36;2.03;;;1.30;;
18887;SDS011;9576;47.792;9.628;2023-05-07T13:21:39;3.17;;;1.38;;
18887;SDS011;9576;47.792;9.628;2023-05-07T13:24:42;5.07;;;1.63;;
18887;SDS011;9576;47.792;9.628;2023-05-07T13:27:44;5.03;;;1.20;;
18887;SDS011;9576;47.792;9.628;2023-05-07T13:30:46;2.85;;;1.70;;
18887;SDS011;9576;47.792;9.628;2023-05-07T13:33:48;4.30;;;1.65;;
18887;SDS011;9576;47.792;9.628;2023-05-07T13:36:50;4.07;;;1.55;;
18887;SDS011;9576;47.792;9.628;2023-05-07T13:39:58;5.28;;;1.60;;
18887;SDS011;9576;47.792;9.628;2023-05-07T13:43:00;4.95;;;1.70;;
18887;SDS011;9576;47.792;9.628;2023-05-07T13:46:03;4.55;;;1.55;;
18887;SDS011;9576;47.792;9.628;2023-05-07T13:49:05;3.42;;;1.55;;
18887;SDS011;9576;47.792;9.628;2023-05-07T13:52:11;3.15;;;1.50;;
18887;SDS011;9576;47.792;9.628;2023-05-07T13:55:14;4.95;;;1.73;;
18887;SDS011;9576;47.792;9.628;2023-05-07T13:58:16;4.57;;;2.03;;
18887;SDS011;9576;47.792;9.628;2023-05-07T14:01:18;3.45;;;1.75;;
18887;SDS011;9576;47.792;9.628;2023-05-07T14:04:21;4.20;;;1.92;;
18887;SDS011;9576;47.792;9.628;2023-05-07T14:07:27;4.65;;;2.10;;
18887;SDS011;9576;47.792;9.628;2023-05-07T14:10:31;1.73;;;1.33;;
18887;SDS011;9576;47.792;9.628;2023-05-07T14:13:34;7.60;;;1.70;;
18887;SDS011;9576;47.792;9.628;2023-05-07T14:16:37;3.80;;;1.75;;
18887;SDS011;9576;47.792;9.628;2023-05-07T14:19:41;2.17;;;1.83;;
18887;SDS011;9576;47.792;9.628;2023-05-07T14:22:43;3.70;;;1.58;;
18887;SDS011;9576;47.792;9.628;2023-05-07T14:25:47;8.73;;;1.80;;
18887;SDS011;9576;47.792;9.628;2023-05-07T14:28:50;2.85;;;1.25;;
18887;SDS011;9576;47.792;9.628;2023-05-07T14:31:57;1.52;;;1.30;;
18887;SDS011;9576;47.792;9.628;2023-05-07T14:35:04;6.50;;;1.67;;
18887;SDS011;9576;47.792;9.628;2023-05-07T14:38:07;3.00;;;1.63;;
18887;SDS011;9576;47.792;9.628;2023-05-07T14:41:12;2.05;;;1.10;;
18887;SDS011;9576;47.792;9.628;2023-05-07T14:44:14;2.80;;;1.80;;
18887;SDS011;9576;47.792;9.628;2023-05-07T14:47:16;8.25;;;2.08;;
18887;SDS011;9576;47.792;9.628;2023-05-07T14:50:18;1.88;;;1.48;;
18887;SDS011;9576;47.792;9.628;2023-05-07T14:53:20;8.35;;;1.63;;
18887;SDS011;9576;47.792;9.628;2023-05-07T14:56:24;3.50;;;1.20;;
18887;SDS011;9576;47.792;9.628;2023-05-07T14:59:37;3.00;;;1.20;;
18887;SDS011;9576;47.792;9.628;2023-05-07T15:02:39;3.63;;;1.83;;
18887;SDS011;9576;47.792;9.628;2023-05-07T15:05:41;5.18;;;1.65;;
18887;SDS011;9576;47.792;9.628;2023-05-07T15:08:46;1.65;;;1.30;;
18887;SDS011;9576;47.792;9.628;2023-05-07T15:11:50;1.63;;;1.17;;
18887;SDS011;9576;47.792;9.628;2023-05-07T15:14:52;3.58;;;1.73;;
18887;SDS011;9576;47.792;9.628;2023-05-07T15:17:54;2.25;;;1.20;;
18887;SDS011;9576;47.792;9.628;2023-05-07T15:20:55;3.92;;;1.58;;
18887;SDS011;9576;47.792;9.628;2023-05-07T15:24:01;2.60;;;1.50;;
18887;SDS011;9576;47.792;9.628;2023-05-07T15:27:04;1.70;;;1.30;;
18887;SDS011;9576;47.792;9.628;2023-05-07T15:30:06;3.03;;;1.15;;
18887;SDS011;9576;47.792;9.628;2023-05-07T15:33:16;3.60;;;1.33;;
18887;SDS011;9576;47.792;9.628;2023-05-07T15:36:18;2.22;;;1.35;;
18887;SDS011;9576;47.792;9.628;2023-05-07T15:39:21;1.90;;;1.20;;
18887;SDS011;9576;47.792;9.628;2023-05-07T15:42:24;2.72;;;1.23;;
18887;SDS011;9576;47.792;9.628;2023-05-07T15:45:31;2.10;;;1.02;;
18887;SDS011;9576;47.792;9.628;2023-05-07T15:48:33;1.10;;;0.98;;
18887;SDS011;9576;47.792;9.628;2023-05-07T15:51:35;0.95;;;0.90;;
18887;SDS011;9576;47.792;9.628;2023-05-07T15:54:37;7.40;;;1.35;;
18887;SDS011;9576;47.792;9.628;2023-05-07T15:57:46;10.13;;;1.92;;
18887;SDS011;9576;47.792;9.628;2023-05-07T16:00:48;4.68;;;1.60;;
18887;SDS011;9576;47.792;9.628;2023-05-07T16:03:50;10.85;;;1.40;;
18887;SDS011;9576;47.792;9.628;2023-05-07T16:06:52;2.90;;;1.20;;
18887;SDS011;9576;47.792;9.628;2023-05-07T16:09:54;2.88;;;1.00;;
18887;SDS011;9576;47.792;9.628;2023-05-07T16:13:00;1.40;;;1.10;;
18887;SDS011;9576;47.792;9.628;2023-05-07T16:16:02;4.13;;;1.60;;
18887;SDS011;9576;47.792;9.628;2023-05-07T16:19:04;3.53;;;1.42;;
18887;SDS011;9576;47.792;9.628;2023-05-07T16:22:06;2.70;;;1.20;;
18887;SDS011;9576;47.792;9.628;2023-05-07T16:25:18;4.53;;;1.20;;
18887;SDS011;9576;47.792;9.628;2023-05-07T16:28:21;3.20;;;1.38;;
18887;SDS011;9576;47.792;9.628;2023-05-07T16:31:23;6.13;;;1.77;;
18887;SDS011;9576;47.792;9.628;2023-05-07T16:34:25;4.82;;;1.70;;
18887;SDS011;9576;47.792;9.628;2023-05-07T16:37:27;2.65;;;1.48;;
18887;SDS011;9576;47.792;9.628;2023-05-07T16:40:29;9.40;;;1.83;;
18887;SDS011;9576;47.792;9.628;2023-05-07T16:43:33;7.25;;;1.92;;
18887;SDS011;9576;47.792;9.628;2023-05-07T16:46:34;2.30;;;1.65;;
18887;SDS011;9576;47.792;9.628;2023-05-07T16:49:42;14.77;;;1.80;;
18887;SDS011;9576;47.792;9.628;2023-05-07T16:52:44;2.05;;;1.50;;
18887;SDS011;9576;47.792;9.628;2023-05-07T16:55:46;8.27;;;1.88;;
18887;SDS011;9576;47.792;9.628;2023-05-07T16:58:57;6.40;;;1.80;;
18887;SDS011;9576;47.792;9.628;2023-05-07T17:01:59;4.47;;;1.48;;
18887;SDS011;9576;47.792;9.628;2023-05-07T17:05:01;4.90;;;1.70;;
18887;SDS011;9576;47.792;9.628;2023-05-07T17:08:05;2.87;;;1.43;;
18887;SDS011;9576;47.792;9.628;2023-05-07T17:11:07;1.63;;;1.30;;
18887;SDS011;9576;47.792;9.628;2023-05-07T17:14:11;6.50;;;1.38;;
18887;SDS011;9576;47.792;9.628;2023-05-07T17:17:12;2.53;;;1.67;;
18887;SDS011;9576;47.792;9.628;2023-05-07T17:20:14;5.78;;;2.15;;
18887;SDS011;9576;47.792;9.628;2023-05-07T17:23:17;3.53;;;1.90;;
18887;SDS011;9576;47.792;9.628;2023-05-07T17:26:26;5.57;;;1.80;;
18887;SDS011;9576;47.792;9.628;2023-05-07T17:29:30;4.25;;;2.15;;
18887;SDS011;9576;47.792;9.628;2023-05-07T17:32:32;4.85;;;1.23;;
18887;SDS011;9576;47.792;9.628;2023-05-07T17:35:34;6.40;;;1.67;;
18887;SDS011;9576;47.792;9.628;2023-05-07T17:38:40;8.05;;;1.42;;
18887;SDS011;9576;47.792;9.628;2023-05-07T17:41:42;4.47;;;1.88;;
18887;SDS011;9576;47.792;9.628;2023-05-07T17:44:45;8.05;;;1.88;;
18887;SDS011;9576;47.792;9.628;2023-05-07T17:47:47;2.58;;;1.55;;
18887;SDS011;9576;47.792;9.628;2023-05-07T17:50:59;1.40;;;1.27;;
18887;SDS011;9576;47.792;9.628;2023-05-07T17:54:01;3.25;;;1.58;;
18887;SDS011;9576;47.792;9.628;2023-05-07T17:57:03;3.40;;;1.58;;
18887;SDS011;9576;47.792;9.628;2023-05-07T18:00:07;6.07;;;1.40;;
18887;SDS011;9576;47.792;9.628;2023-05-07T18:03:09;2.40;;;1.48;;
18887;SDS011;9576;47.792;9.628;2023-05-07T18:06:11;7.78;;;1.90;;
18887;SDS011;9576;47.792;9.628;2023-05-07T18:09:16;6.43;;;1.65;;
18887;SDS011;9576;47.792;9.628;2023-05-07T18:12:20;2.22;;;1.42;;
18887;SDS011;9576;47.792;9.628;2023-05-07T18:15:23;5.22;;;1.77;;
18887;SDS011;9576;47.792;9.628;2023-05-07T18:18:25;3.78;;;1.70;;
18887;SDS011;9576;47.792;9.628;2023-05-07T18:21:29;2.40;;;2.00;;
18887;SDS011;9576;47.792;9.628;2023-05-07T18:24:33;3.17;;;1.63;;
18887;SDS011;9576;47.792;9.628;2023-05-07T18:27:35;9.07;;;2.63;;
18887;SDS011;9576;47.792;9.628;2023-05-07T18:30:39;3.63;;;2.03;;
18887;SDS011;9576;47.792;9.628;2023-05-07T18:33:40;4.75;;;2.58;;
18887;SDS011;9576;47.792;9.628;2023-05-07T18:36:43;4.38;;;2.00;;
18887;SDS011;9576;47.792;9.628;2023-05-07T18:39:51;4.93;;;2.00;;
18887;SDS011;9576;47.792;9.628;2023-05-07T18:42:53;9.18;;;2.55;;
18887;SDS011;9576;47.792;9.628;2023-05-07T18:45:57;3.13;;;2.20;;
18887;SDS011;9576;47.792;9.628;2023-05-07T18:49:02;4.55;;;2.72;;
18887;SDS011;9576;47.792;9.628;2023-05-07T18:52:09;5.10;;;2.55;;
18887;SDS011;9576;47.792;9.628;2023-05-07T18:55:11;4.88;;;2.63;;
18887;SDS011;9576;47.792;9.628;2023-05-07T18:58:13;6.03;;;2.67;;
18887;SDS011;9576;47.792;9.628;2023-05-07T19:01:18;4.35;;;2.35;;